ЗЦ Центральная Азия

ЗЦ Центральной Азии - "Азия-Центр" включает в себя пять республик: Казахстан, Кыргызстан, Таджикистан, Туркменистан и Узбекистан.

Зональный Центр обслуживает все аэропорты Центральной Азии по принципу "Top-down"

ЗЦ включает в себя РПИ Актобе, Алматы, Астаны, Ашхабада, Бишкека, Дашогуза, Душанбе, Оша, Самарканда, Ташкента, Туркменабата, Туркменбаши и Шымкента

В сети ВАТСИМ обслуживание воздушного движения над территорией ЗЦ Центральной Азии осуществляет позиция RU-CEN_FSS, позывной "Азия-Центр", частота 132.850.

Диспетчеры региона

Диспетчер Рейтинг Допуски *
Dmitriy Bannov Instructor UAAA_CTR, UACC_CTR
Vitaliy Alekseyev Instructor UTSD_CTR, UTTR_CTR
Alikhan Aidarbek Student UAAA_GND, UACC_GND
Arman Maxatov Student 2 UACC_TWR, UTTT_TWR
Artem Kuzmenko Student UACC_GND
Kirill Ardatov Student 2 UACC_TWR
Sarsenov Shadiyar Student UACC_GND
Timur Gilmanov Student UTTT_GND

Аэропорты региона

ICAO Город Название Погода
UAAA Алматы Алматы UAAA 020100Z 19002MPS 170V230 9999 SCT100 20/07 Q1008 NOSIG
UCFM Бишкек Манас UCFM 020100Z 24004MPS CAVOK 17/06 Q1008 R26/0///95 NOSIG
UAKK Караганда Караганда UAKK 020100Z VRB01MPS CAVOK 11/02 Q1011 NOSIG RMK QFE711/0949
UACC Нур-Султан Нур-Султан UACC 020100Z VRB01MPS CAVOK 13/06 Q1011 NOSIG RMK QFE727/0969
UTTT Ташкент Ташкент UTTT 020100Z 14004KT CAVOK 22/08 Q1007 R08R/CLRD70 NOSIG
UATT Актобе Актобе UATT 020100Z 00000MPS CAVOK 12/07 Q1010 NOSIG RMK QFE738/0984
UATG Атырау Атырау UATG 020100Z 08004MPS 9999 SCT033CB 19/15 Q1007 NOSIG RMK QFE757/1010
UTAA Ашхабад Ашхабад UTAA 020100Z 29008KT 9999 NSC 29/16 Q1004 R88/70D NOSIG
UTSB Бухара Бухара UTSB 020100Z 04004KT CAVOK 22/09 Q1004 R01/CLRD70 NOSIG
UTAT Дашогуз Дашогуз UTAT 020100Z 06008KT CAVOK 25/03 Q1006 R08/CLRD70 NOSIG
UTDD Душанбе Душанбе UTDD 020100Z VRB01MPS 8000 SCT038 25/13 Q1005 R09/D NOSIG RMK QFE686/0915
UAKD Жезказган Жезказган UAKD 020100Z 07004MPS CAVOK 16/M00 Q1009 NOSIG RMK QFE723/0965
UAUU Костанай Наримановка UAUU 020100Z 36002MPS CAVOK 13/08 Q1012 NOSIG RMK QFE743/0991
UTAM Мары Мары UTAM 020100Z 05006KT CAVOKC26/12 Q1003 R88/CLRD70 NOSIG
UCFO Ош Ош UCFO 020100Z 14003MPS CAVOK 21/10 Q1009 R12/0///95 NOSIG
UTSS Самарканд Самарканд UTSS 020100Z 14010KT 9999 NSC 22/06 Q1007 R09/70D NOSIG
UTST Термез Термез UTST 020100Z 24004KT CAVOK 24/04 Q1001 R25/CLRD70 NOSIG
UTAV Туркменабад Туркменабат UTAV 020100Z 03008KT CAVOK 24/08 Q1004 R31/CLRD70 NOSIG
UTAK Туркменбаши Туркменбаши UTAK 020100Z 09008KT CAVOK 26/16 Q1004 R34L/CLRD70 NOSIG
UARR Уральск Уральск UARR 020100Z 34002MPS 300V010 9999 -SHRA SCT050CB 14/12 Q1008 TEMPO -TSRA RMK QFE752/1003
UTNU Ургенч Ургенч UTNU 020100Z 04010KT CAVOK 23/03 Q1006 R31/CLRD70 NOSIG
UTDL Худжанд Худжанд UTDL 020100Z 27004MPS 9999 NSC 23/05 Q1007 R26/CLRD70 NOSIG RMK QFE717/0957
UAII Шымкент Шымкент UAII 020100Z 15003MPS CAVOK 23/03 Q1007 NOSIG RMK QFE718/0957
UTKA Андижан Андижан
UCFL Иссык-Куль Иссык-Куль UCFL 020100Z 26002MPS 9999 NSC 19/09 Q1014 R07/CLRD95
UCFP Каракол Каракол
UTSL Карши Карши-Ханабад
UTSA Навои Навои UTSA 020100Z 10004KT 9999 NSC 21/03 Q1005 R07/CLRD70 NOSIG
UTFN Наманган Наманган UTFN 020100Z 36004KT 9999 NSC 23/09 Q1006 R28/CLRD70 NOSIG
UTNN Нукус Нукус UTNN 020100Z 05004KT CAVOK 22/M00 Q1007 R33/CLRD60 NOSIG
UTFF Фергана Фергана UTFF 020100Z 15006KT 9999 NSC 26/05 Q1007 R18/CLRD70